sensor_id;sensor_type;location;lat;lon;timestamp;temperature;humidity
19164;DHT22;9714;51.208;4.242;2023-06-10T00:02:35;24.80;71.40
19164;DHT22;9714;51.208;4.242;2023-06-10T00:05:09;24.70;71.60
19164;DHT22;9714;51.208;4.242;2023-06-10T00:07:43;24.50;72.20
19164;DHT22;9714;51.208;4.242;2023-06-10T00:10:33;24.50;72.90
19164;DHT22;9714;51.208;4.242;2023-06-10T00:13:12;24.60;73.10
19164;DHT22;9714;51.208;4.242;2023-06-10T00:15:47;24.60;73.30
19164;DHT22;9714;51.208;4.242;2023-06-10T00:18:20;24.50;73.70
19164;DHT22;9714;51.208;4.242;2023-06-10T00:20:51;24.50;74.10
19164;DHT22;9714;51.208;4.242;2023-06-10T00:23:24;24.40;74.50
19164;DHT22;9714;51.208;4.242;2023-06-10T00:25:53;24.40;75.10
19164;DHT22;9714;51.208;4.242;2023-06-10T00:28:52;24.40;75.20
19164;DHT22;9714;51.208;4.242;2023-06-10T00:31:27;24.40;75.60
19164;DHT22;9714;51.208;4.242;2023-06-10T00:34:10;24.40;75.90
19164;DHT22;9714;51.208;4.242;2023-06-10T00:36:38;24.30;76.40
19164;DHT22;9714;51.208;4.242;2023-06-10T00:39:21;24.20;76.90
19164;DHT22;9714;51.208;4.242;2023-06-10T00:41:52;24.30;77.30
19164;DHT22;9714;51.208;4.242;2023-06-10T00:44:20;24.20;77.60
19164;DHT22;9714;51.208;4.242;2023-06-10T00:46:50;24.20;78.90
19164;DHT22;9714;51.208;4.242;2023-06-10T00:49:25;24.30;78.60
19164;DHT22;9714;51.208;4.242;2023-06-10T00:51:53;24.10;79.40
19164;DHT22;9714;51.208;4.242;2023-06-10T00:54:23;24.10;80.20
19164;DHT22;9714;51.208;4.242;2023-06-10T00:56:52;24.10;80.50
19164;DHT22;9714;51.208;4.242;2023-06-10T00:59:23;24.20;80.50
19164;DHT22;9714;51.208;4.242;2023-06-10T01:01:54;24.20;80.90
19164;DHT22;9714;51.208;4.242;2023-06-10T01:04:45;24.10;81.70
19164;DHT22;9714;51.208;4.242;2023-06-10T01:07:36;24.10;82.30
19164;DHT22;9714;51.208;4.242;2023-06-10T01:10:11;24.20;82.20
19164;DHT22;9714;51.208;4.242;2023-06-10T01:16:03;23.80;84.20
19164;DHT22;9714;51.208;4.242;2023-06-10T01:19:11;23.90;84.90
19164;DHT22;9714;51.208;4.242;2023-06-10T01:21:41;23.70;86.00
19164;DHT22;9714;51.208;4.242;2023-06-10T01:24:30;23.80;86.90
19164;DHT22;9714;51.208;4.242;2023-06-10T01:27:02;23.80;87.60
19164;DHT22;9714;51.208;4.242;2023-06-10T01:29:37;23.80;88.10
19164;DHT22;9714;51.208;4.242;2023-06-10T01:32:17;23.80;88.70
19164;DHT22;9714;51.208;4.242;2023-06-10T01:35:02;23.90;88.80
19164;DHT22;9714;51.208;4.242;2023-06-10T01:37:32;23.80;89.20
19164;DHT22;9714;51.208;4.242;2023-06-10T01:40:03;23.70;90.00
19164;DHT22;9714;51.208;4.242;2023-06-10T01:42:36;23.60;90.50
19164;DHT22;9714;51.208;4.242;2023-06-10T01:45:10;23.70;90.60
19164;DHT22;9714;51.208;4.242;2023-06-10T01:47:37;23.70;90.90
19164;DHT22;9714;51.208;4.242;2023-06-10T01:50:09;23.80;91.00
19164;DHT22;9714;51.208;4.242;2023-06-10T01:53:13;23.90;90.80
19164;DHT22;9714;51.208;4.242;2023-06-10T01:55:44;23.70;91.50
19164;DHT22;9714;51.208;4.242;2023-06-10T01:58:17;23.70;91.70
19164;DHT22;9714;51.208;4.242;2023-06-10T02:00:44;23.70;91.70
19164;DHT22;9714;51.208;4.242;2023-06-10T02:03:12;23.50;92.40
19164;DHT22;9714;51.208;4.242;2023-06-10T02:05:40;23.50;93.00
19164;DHT22;9714;51.208;4.242;2023-06-10T02:08:08;23.60;93.10
19164;DHT22;9714;51.208;4.242;2023-06-10T02:10:37;23.50;93.50
19164;DHT22;9714;51.208;4.242;2023-06-10T02:13:07;23.40;94.00
19164;DHT22;9714;51.208;4.242;2023-06-10T02:15:37;23.40;94.70
19164;DHT22;9714;51.208;4.242;2023-06-10T02:18:05;23.50;94.70
19164;DHT22;9714;51.208;4.242;2023-06-10T02:20:32;23.60;94.80
19164;DHT22;9714;51.208;4.242;2023-06-10T02:22:59;23.60;95.00
19164;DHT22;9714;51.208;4.242;2023-06-10T02:25:26;23.50;95.50
19164;DHT22;9714;51.208;4.242;2023-06-10T02:27:55;23.30;96.40
19164;DHT22;9714;51.208;4.242;2023-06-10T02:30:22;23.30;97.00
19164;DHT22;9714;51.208;4.242;2023-06-10T02:32:49;23.30;97.50
19164;DHT22;9714;51.208;4.242;2023-06-10T02:35:16;23.20;98.10
19164;DHT22;9714;51.208;4.242;2023-06-10T02:37:43;23.20;98.60
19164;DHT22;9714;51.208;4.242;2023-06-10T02:40:11;23.20;99.10
19164;DHT22;9714;51.208;4.242;2023-06-10T02:42:38;23.20;99.60
19164;DHT22;9714;51.208;4.242;2023-06-10T02:45:07;23.10;99.90
19164;DHT22;9714;51.208;4.242;2023-06-10T02:47:37;23.20;99.90
19164;DHT22;9714;51.208;4.242;2023-06-10T02:50:04;23.20;99.90
19164;DHT22;9714;51.208;4.242;2023-06-10T02:52:31;23.10;99.90
19164;DHT22;9714;51.208;4.242;2023-06-10T02:55:00;22.90;99.90
19164;DHT22;9714;51.208;4.242;2023-06-10T02:57:27;22.90;99.90
19164;DHT22;9714;51.208;4.242;2023-06-10T02:59:54;22.90;99.90
19164;DHT22;9714;51.208;4.242;2023-06-10T03:02:24;22.80;99.90
19164;DHT22;9714;51.208;4.242;2023-06-10T03:04:54;22.90;99.90
19164;DHT22;9714;51.208;4.242;2023-06-10T03:07:21;23.00;99.90
19164;DHT22;9714;51.208;4.242;2023-06-10T03:09:48;22.70;99.90
19164;DHT22;9714;51.208;4.242;2023-06-10T03:12:16;22.90;99.90
19164;DHT22;9714;51.208;4.242;2023-06-10T03:14:42;23.00;99.90
19164;DHT22;9714;51.208;4.242;2023-06-10T03:17:09;23.00;99.90
19164;DHT22;9714;51.208;4.242;2023-06-10T03:19:38;22.90;99.90
19164;DHT22;9714;51.208;4.242;2023-06-10T03:22:09;22.80;99.90
19164;DHT22;9714;51.208;4.242;2023-06-10T03:24:37;22.80;99.90
19164;DHT22;9714;51.208;4.242;2023-06-10T03:27:06;22.70;99.90
19164;DHT22;9714;51.208;4.242;2023-06-10T03:29:34;22.90;99.90
19164;DHT22;9714;51.208;4.242;2023-06-10T03:32:01;22.80;99.90
19164;DHT22;9714;51.208;4.242;2023-06-10T03:34:28;22.80;99.90
19164;DHT22;9714;51.208;4.242;2023-06-10T03:36:57;22.70;99.90
19164;DHT22;9714;51.208;4.242;2023-06-10T03:39:24;22.60;99.90
19164;DHT22;9714;51.208;4.242;2023-06-10T03:41:51;22.60;99.90
19164;DHT22;9714;51.208;4.242;2023-06-10T03:44:18;22.50;99.90
19164;DHT22;9714;51.208;4.242;2023-06-10T03:46:45;22.60;99.90
19164;DHT22;9714;51.208;4.242;2023-06-10T03:49:14;22.70;99.90
19164;DHT22;9714;51.208;4.242;2023-06-10T03:51:43;22.60;99.90
19164;DHT22;9714;51.208;4.242;2023-06-10T03:54:11;22.70;99.90
19164;DHT22;9714;51.208;4.242;2023-06-10T03:56:39;22.60;99.90
19164;DHT22;9714;51.208;4.242;2023-06-10T03:59:06;22.70;99.90
19164;DHT22;9714;51.208;4.242;2023-06-10T04:01:33;22.80;99.90
19164;DHT22;9714;51.208;4.242;2023-06-10T04:04:00;22.70;99.90
19164;DHT22;9714;51.208;4.242;2023-06-10T04:06:28;22.70;99.90
19164;DHT22;9714;51.208;4.242;2023-06-10T04:08:55;22.60;99.90
19164;DHT22;9714;51.208;4.242;2023-06-10T04:11:24;22.50;99.90
19164;DHT22;9714;51.208;4.242;2023-06-10T04:13:51;22.80;99.90
19164;DHT22;9714;51.208;4.242;2023-06-10T04:16:18;22.70;99.90
19164;DHT22;9714;51.208;4.242;2023-06-10T04:18:46;22.90;99.90
19164;DHT22;9714;51.208;4.242;2023-06-10T04:21:13;22.60;99.90
19164;DHT22;9714;51.208;4.242;2023-06-10T04:23:40;22.50;99.90
19164;DHT22;9714;51.208;4.242;2023-06-10T04:26:07;22.40;99.90
19164;DHT22;9714;51.208;4.242;2023-06-10T04:28:38;22.40;99.90
19164;DHT22;9714;51.208;4.242;2023-06-10T04:31:05;22.60;99.90
19164;DHT22;9714;51.208;4.242;2023-06-10T04:33:32;22.50;99.90
19164;DHT22;9714;51.208;4.242;2023-06-10T04:35:59;22.60;99.90
19164;DHT22;9714;51.208;4.242;2023-06-10T04:38:26;22.60;99.90
19164;DHT22;9714;51.208;4.242;2023-06-10T04:40:53;22.70;99.90
19164;DHT22;9714;51.208;4.242;2023-06-10T04:43:21;22.70;99.90
19164;DHT22;9714;51.208;4.242;2023-06-10T04:45:50;22.70;99.90
19164;DHT22;9714;51.208;4.242;2023-06-10T04:48:17;22.80;99.90
19164;DHT22;9714;51.208;4.242;2023-06-10T04:50:44;22.70;99.90
19164;DHT22;9714;51.208;4.242;2023-06-10T04:53:11;22.60;99.90
19164;DHT22;9714;51.208;4.242;2023-06-10T04:55:38;22.60;99.90
19164;DHT22;9714;51.208;4.242;2023-06-10T04:58:05;22.60;99.90
19164;DHT22;9714;51.208;4.242;2023-06-10T05:00:32;22.80;99.90
19164;DHT22;9714;51.208;4.242;2023-06-10T05:03:00;22.80;99.90
19164;DHT22;9714;51.208;4.242;2023-06-10T05:05:27;22.80;99.90
19164;DHT22;9714;51.208;4.242;2023-06-10T05:07:55;22.90;99.90
19164;DHT22;9714;51.208;4.242;2023-06-10T05:10:22;22.90;99.90
19164;DHT22;9714;51.208;4.242;2023-06-10T05:12:50;22.80;99.90
19164;DHT22;9714;51.208;4.242;2023-06-10T05:15:17;22.90;99.90
19164;DHT22;9714;51.208;4.242;2023-06-10T05:17:44;22.90;99.90
19164;DHT22;9714;51.208;4.242;2023-06-10T05:20:13;23.10;99.90
19164;DHT22;9714;51.208;4.242;2023-06-10T05:22:40;22.90;99.90
19164;DHT22;9714;51.208;4.242;2023-06-10T05:25:08;23.10;99.90
19164;DHT22;9714;51.208;4.242;2023-06-10T05:27:35;23.10;99.90
19164;DHT22;9714;51.208;4.242;2023-06-10T05:30:03;23.20;99.90
19164;DHT22;9714;51.208;4.242;2023-06-10T05:32:31;23.10;99.90
19164;DHT22;9714;51.208;4.242;2023-06-10T05:34:59;23.10;99.90
19164;DHT22;9714;51.208;4.242;2023-06-10T05:37:28;23.10;99.90
19164;DHT22;9714;51.208;4.242;2023-06-10T05:39:58;23.30;99.90
19164;DHT22;9714;51.208;4.242;2023-06-10T05:42:26;23.30;99.90
19164;DHT22;9714;51.208;4.242;2023-06-10T05:44:53;23.40;99.90
19164;DHT22;9714;51.208;4.242;2023-06-10T05:47:21;23.40;99.90
19164;DHT22;9714;51.208;4.242;2023-06-10T05:49:48;23.40;99.90
19164;DHT22;9714;51.208;4.242;2023-06-10T05:52:17;23.40;99.90
19164;DHT22;9714;51.208;4.242;2023-06-10T05:54:46;23.40;99.90
19164;DHT22;9714;51.208;4.242;2023-06-10T05:57:14;23.50;99.90
19164;DHT22;9714;51.208;4.242;2023-06-10T05:59:41;23.50;99.90
19164;DHT22;9714;51.208;4.242;2023-06-10T06:02:09;23.30;99.90
19164;DHT22;9714;51.208;4.242;2023-06-10T06:04:36;23.40;99.90
19164;DHT22;9714;51.208;4.242;2023-06-10T06:07:04;23.50;99.90
19164;DHT22;9714;51.208;4.242;2023-06-10T06:09:31;23.70;99.90
19164;DHT22;9714;51.208;4.242;2023-06-10T06:11:59;23.80;99.90
19164;DHT22;9714;51.208;4.242;2023-06-10T06:14:30;23.90;99.90
19164;DHT22;9714;51.208;4.242;2023-06-10T06:16:57;23.90;99.90
19164;DHT22;9714;51.208;4.242;2023-06-10T06:19:24;23.80;99.90
19164;DHT22;9714;51.208;4.242;2023-06-10T06:21:51;23.90;99.90
19164;DHT22;9714;51.208;4.242;2023-06-10T06:24:18;24.00;99.90
19164;DHT22;9714;51.208;4.242;2023-06-10T06:26:45;23.80;99.90
19164;DHT22;9714;51.208;4.242;2023-06-10T06:29:14;23.90;99.90
19164;DHT22;9714;51.208;4.242;2023-06-10T06:31:41;24.20;99.90
19164;DHT22;9714;51.208;4.242;2023-06-10T06:34:08;24.20;99.90
19164;DHT22;9714;51.208;4.242;2023-06-10T06:36:35;24.30;99.90
19164;DHT22;9714;51.208;4.242;2023-06-10T06:39:02;24.30;99.90
19164;DHT22;9714;51.208;4.242;2023-06-10T06:41:30;24.30;99.90
19164;DHT22;9714;51.208;4.242;2023-06-10T06:43:57;24.50;99.90
19164;DHT22;9714;51.208;4.242;2023-06-10T06:46:25;24.50;99.90
19164;DHT22;9714;51.208;4.242;2023-06-10T06:48:54;24.50;99.90
19164;DHT22;9714;51.208;4.242;2023-06-10T06:51:21;24.90;99.90
19164;DHT22;9714;51.208;4.242;2023-06-10T06:53:48;25.10;99.90
19164;DHT22;9714;51.208;4.242;2023-06-10T06:56:16;25.10;99.90
19164;DHT22;9714;51.208;4.242;2023-06-10T06:58:44;25.10;99.90
19164;DHT22;9714;51.208;4.242;2023-06-10T07:01:10;25.30;99.90
19164;DHT22;9714;51.208;4.242;2023-06-10T07:03:39;25.20;99.90
19164;DHT22;9714;51.208;4.242;2023-06-10T07:06:06;25.30;99.90
19164;DHT22;9714;51.208;4.242;2023-06-10T07:08:33;25.50;99.90
19164;DHT22;9714;51.208;4.242;2023-06-10T07:11:00;25.50;99.90
19164;DHT22;9714;51.208;4.242;2023-06-10T07:13:27;25.80;99.90
19164;DHT22;9714;51.208;4.242;2023-06-10T07:15:54;25.90;99.90
19164;DHT22;9714;51.208;4.242;2023-06-10T07:18:21;26.10;99.90
19164;DHT22;9714;51.208;4.242;2023-06-10T07:20:51;26.00;99.90
19164;DHT22;9714;51.208;4.242;2023-06-10T07:23:18;26.10;99.90
19164;DHT22;9714;51.208;4.242;2023-06-10T07:25:45;26.20;99.90
19164;DHT22;9714;51.208;4.242;2023-06-10T07:28:12;26.20;99.90
19164;DHT22;9714;51.208;4.242;2023-06-10T07:30:39;26.50;99.90
19164;DHT22;9714;51.208;4.242;2023-06-10T07:33:07;26.60;99.90
19164;DHT22;9714;51.208;4.242;2023-06-10T07:35:36;26.70;99.40
19164;DHT22;9714;51.208;4.242;2023-06-10T07:38:04;26.90;98.60
19164;DHT22;9714;51.208;4.242;2023-06-10T07:40:31;26.40;99.10
19164;DHT22;9714;51.208;4.242;2023-06-10T07:42:58;26.50;99.40
19164;DHT22;9714;51.208;4.242;2023-06-10T07:45:25;26.80;98.40
19164;DHT22;9714;51.208;4.242;2023-06-10T07:47:53;26.70;98.80
19164;DHT22;9714;51.208;4.242;2023-06-10T07:50:21;26.90;98.40
19164;DHT22;9714;51.208;4.242;2023-06-10T07:52:49;27.20;97.80
19164;DHT22;9714;51.208;4.242;2023-06-10T07:55:18;27.30;97.20
19164;DHT22;9714;51.208;4.242;2023-06-10T07:57:46;27.30;97.10
19164;DHT22;9714;51.208;4.242;2023-06-10T08:00:13;27.60;96.60
19164;DHT22;9714;51.208;4.242;2023-06-10T08:02:40;27.80;94.80
19164;DHT22;9714;51.208;4.242;2023-06-10T08:05:08;27.70;95.20
19164;DHT22;9714;51.208;4.242;2023-06-10T08:07:36;27.90;94.70
19164;DHT22;9714;51.208;4.242;2023-06-10T08:10:04;27.90;93.10
19164;DHT22;9714;51.208;4.242;2023-06-10T08:12:33;28.00;93.20
19164;DHT22;9714;51.208;4.242;2023-06-10T08:15:00;28.00;92.90
19164;DHT22;9714;51.208;4.242;2023-06-10T08:17:30;27.80;93.30
19164;DHT22;9714;51.208;4.242;2023-06-10T08:19:58;27.90;93.00
19164;DHT22;9714;51.208;4.242;2023-06-10T08:22:25;27.90;92.80
19164;DHT22;9714;51.208;4.242;2023-06-10T08:24:52;28.00;93.40
19164;DHT22;9714;51.208;4.242;2023-06-10T08:27:20;28.00;92.80
19164;DHT22;9714;51.208;4.242;2023-06-10T08:29:48;28.10;92.50
19164;DHT22;9714;51.208;4.242;2023-06-10T08:32:16;28.30;91.60
19164;DHT22;9714;51.208;4.242;2023-06-10T08:34:43;28.30;91.60
19164;DHT22;9714;51.208;4.242;2023-06-10T08:37:10;28.50;91.40
19164;DHT22;9714;51.208;4.242;2023-06-10T08:39:37;28.90;90.10
19164;DHT22;9714;51.208;4.242;2023-06-10T08:42:11;29.30;88.60
19164;DHT22;9714;51.208;4.242;2023-06-10T08:44:42;29.60;86.70
19164;DHT22;9714;51.208;4.242;2023-06-10T08:47:14;29.70;86.60
19164;DHT22;9714;51.208;4.242;2023-06-10T08:49:44;30.60;84.50
19164;DHT22;9714;51.208;4.242;2023-06-10T08:52:15;31.20;82.10
19164;DHT22;9714;51.208;4.242;2023-06-10T08:54:43;31.80;77.70
19164;DHT22;9714;51.208;4.242;2023-06-10T08:57:13;32.00;75.10
19164;DHT22;9714;51.208;4.242;2023-06-10T08:59:41;31.90;73.80
19164;DHT22;9714;51.208;4.242;2023-06-10T09:02:08;31.80;73.50
19164;DHT22;9714;51.208;4.242;2023-06-10T09:04:38;31.80;72.30
19164;DHT22;9714;51.208;4.242;2023-06-10T09:07:05;32.50;72.90
19164;DHT22;9714;51.208;4.242;2023-06-10T09:09:35;33.50;69.30
19164;DHT22;9714;51.208;4.242;2023-06-10T09:12:03;33.90;65.60
19164;DHT22;9714;51.208;4.242;2023-06-10T09:14:31;34.40;64.30
19164;DHT22;9714;51.208;4.242;2023-06-10T09:16:58;34.00;63.30
19164;DHT22;9714;51.208;4.242;2023-06-10T09:19:25;34.40;63.90
19164;DHT22;9714;51.208;4.242;2023-06-10T09:21:55;34.80;60.70
19164;DHT22;9714;51.208;4.242;2023-06-10T09:24:23;34.70;60.20
19164;DHT22;9714;51.208;4.242;2023-06-10T09:26:51;34.90;58.90
19164;DHT22;9714;51.208;4.242;2023-06-10T09:29:28;34.90;57.40
19164;DHT22;9714;51.208;4.242;2023-06-10T09:31:56;35.20;56.60
19164;DHT22;9714;51.208;4.242;2023-06-10T09:34:25;35.50;57.20
19164;DHT22;9714;51.208;4.242;2023-06-10T09:36:55;36.90;55.90
19164;DHT22;9714;51.208;4.242;2023-06-10T09:39:22;37.90;53.10
19164;DHT22;9714;51.208;4.242;2023-06-10T09:41:50;37.20;51.70
19164;DHT22;9714;51.208;4.242;2023-06-10T09:44:19;36.40;51.10
19164;DHT22;9714;51.208;4.242;2023-06-10T09:46:47;36.60;51.70
19164;DHT22;9714;51.208;4.242;2023-06-10T09:49:16;36.70;51.00
19164;DHT22;9714;51.208;4.242;2023-06-10T09:51:50;37.10;50.90
19164;DHT22;9714;51.208;4.242;2023-06-10T09:54:20;37.00;50.00
19164;DHT22;9714;51.208;4.242;2023-06-10T09:56:49;37.50;49.40
19164;DHT22;9714;51.208;4.242;2023-06-10T09:59:16;35.40;50.70
19164;DHT22;9714;51.208;4.242;2023-06-10T10:01:55;35.50;51.00
19164;DHT22;9714;51.208;4.242;2023-06-10T10:04:23;36.80;50.70
19164;DHT22;9714;51.208;4.242;2023-06-10T10:06:51;38.10;48.10
19164;DHT22;9714;51.208;4.242;2023-06-10T10:09:20;38.30;46.70
19164;DHT22;9714;51.208;4.242;2023-06-10T10:11:48;38.00;46.90
19164;DHT22;9714;51.208;4.242;2023-06-10T10:14:17;37.10;46.20
19164;DHT22;9714;51.208;4.242;2023-06-10T10:16:46;36.40;47.50
19164;DHT22;9714;51.208;4.242;2023-06-10T10:19:18;36.50;47.10
19164;DHT22;9714;51.208;4.242;2023-06-10T10:21:52;36.80;47.10
19164;DHT22;9714;51.208;4.242;2023-06-10T10:24:23;36.90;46.90
19164;DHT22;9714;51.208;4.242;2023-06-10T10:26:55;36.10;47.20
19164;DHT22;9714;51.208;4.242;2023-06-10T10:29:29;36.20;46.80
19164;DHT22;9714;51.208;4.242;2023-06-10T10:32:00;36.20;47.20
19164;DHT22;9714;51.208;4.242;2023-06-10T10:34:32;36.20;47.30
19164;DHT22;9714;51.208;4.242;2023-06-10T10:37:03;36.70;46.70
19164;DHT22;9714;51.208;4.242;2023-06-10T10:39:33;37.00;45.80
19164;DHT22;9714;51.208;4.242;2023-06-10T10:42:02;36.50;46.40
19164;DHT22;9714;51.208;4.242;2023-06-10T10:44:30;35.90;44.70
19164;DHT22;9714;51.208;4.242;2023-06-10T10:47:02;35.90;44.00
19164;DHT22;9714;51.208;4.242;2023-06-10T10:49:30;36.30;44.40
19164;DHT22;9714;51.208;4.242;2023-06-10T10:51:58;37.10;44.70
19164;DHT22;9714;51.208;4.242;2023-06-10T10:54:29;37.00;44.60
19164;DHT22;9714;51.208;4.242;2023-06-10T10:57:16;37.00;44.60
19164;DHT22;9714;51.208;4.242;2023-06-10T10:59:46;36.30;45.10
19164;DHT22;9714;51.208;4.242;2023-06-10T11:02:16;35.40;45.80
19164;DHT22;9714;51.208;4.242;2023-06-10T11:04:47;36.00;46.70
19164;DHT22;9714;51.208;4.242;2023-06-10T11:07:20;36.90;46.20
19164;DHT22;9714;51.208;4.242;2023-06-10T11:10:08;38.50;45.20
19164;DHT22;9714;51.208;4.242;2023-06-10T11:12:52;38.30;43.50
19164;DHT22;9714;51.208;4.242;2023-06-10T11:15:21;39.40;44.10
19164;DHT22;9714;51.208;4.242;2023-06-10T11:18:09;39.70;42.90
19164;DHT22;9714;51.208;4.242;2023-06-10T11:20:57;40.10;43.60
19164;DHT22;9714;51.208;4.242;2023-06-10T11:23:37;38.90;40.90
19164;DHT22;9714;51.208;4.242;2023-06-10T11:26:15;37.50;41.90
19164;DHT22;9714;51.208;4.242;2023-06-10T11:29:03;37.60;42.70
19164;DHT22;9714;51.208;4.242;2023-06-10T11:31:31;37.40;42.30
19164;DHT22;9714;51.208;4.242;2023-06-10T11:34:00;37.70;42.30
19164;DHT22;9714;51.208;4.242;2023-06-10T11:36:29;37.10;42.90
19164;DHT22;9714;51.208;4.242;2023-06-10T11:38:57;36.90;41.60
19164;DHT22;9714;51.208;4.242;2023-06-10T11:41:26;36.00;43.30
19164;DHT22;9714;51.208;4.242;2023-06-10T11:43:55;36.50;43.70
19164;DHT22;9714;51.208;4.242;2023-06-10T11:46:22;36.80;42.70
19164;DHT22;9714;51.208;4.242;2023-06-10T11:48:53;36.90;42.50
19164;DHT22;9714;51.208;4.242;2023-06-10T11:51:21;37.10;42.60
19164;DHT22;9714;51.208;4.242;2023-06-10T11:53:48;38.10;41.50
19164;DHT22;9714;51.208;4.242;2023-06-10T11:56:19;38.80;41.00
19164;DHT22;9714;51.208;4.242;2023-06-10T11:58:53;37.90;40.90
19164;DHT22;9714;51.208;4.242;2023-06-10T12:01:22;37.30;40.80
19164;DHT22;9714;51.208;4.242;2023-06-10T12:03:57;36.50;42.00
19164;DHT22;9714;51.208;4.242;2023-06-10T12:06:24;36.20;41.70
19164;DHT22;9714;51.208;4.242;2023-06-10T12:08:53;36.80;41.60
19164;DHT22;9714;51.208;4.242;2023-06-10T12:11:20;36.30;41.60
19164;DHT22;9714;51.208;4.242;2023-06-10T12:13:49;37.30;41.60
19164;DHT22;9714;51.208;4.242;2023-06-10T12:16:18;37.60;40.40
19164;DHT22;9714;51.208;4.242;2023-06-10T12:18:46;38.20;40.80
19164;DHT22;9714;51.208;4.242;2023-06-10T12:21:18;37.70;40.90
19164;DHT22;9714;51.208;4.242;2023-06-10T12:24:04;38.10;41.70
19164;DHT22;9714;51.208;4.242;2023-06-10T12:26:40;38.40;40.70
19164;DHT22;9714;51.208;4.242;2023-06-10T12:29:21;38.10;40.90
19164;DHT22;9714;51.208;4.242;2023-06-10T12:31:59;39.00;40.90
19164;DHT22;9714;51.208;4.242;2023-06-10T12:34:31;39.90;39.60
19164;DHT22;9714;51.208;4.242;2023-06-10T12:36:59;39.30;39.40
19164;DHT22;9714;51.208;4.242;2023-06-10T12:39:26;39.30;39.90
19164;DHT22;9714;51.208;4.242;2023-06-10T12:41:54;39.00;40.00
19164;DHT22;9714;51.208;4.242;2023-06-10T12:44:39;38.10;40.10
19164;DHT22;9714;51.208;4.242;2023-06-10T12:47:09;38.70;40.60
19164;DHT22;9714;51.208;4.242;2023-06-10T12:49:38;37.80;40.00
19164;DHT22;9714;51.208;4.242;2023-06-10T12:52:05;36.80;41.10
19164;DHT22;9714;51.208;4.242;2023-06-10T12:54:33;36.70;40.40
19164;DHT22;9714;51.208;4.242;2023-06-10T12:57:01;37.70;40.20
19164;DHT22;9714;51.208;4.242;2023-06-10T12:59:28;37.60;39.20
19164;DHT22;9714;51.208;4.242;2023-06-10T13:01:57;36.80;39.90
19164;DHT22;9714;51.208;4.242;2023-06-10T13:04:25;36.20;41.00
19164;DHT22;9714;51.208;4.242;2023-06-10T13:06:52;35.40;42.10
19164;DHT22;9714;51.208;4.242;2023-06-10T13:09:19;35.20;42.00
19164;DHT22;9714;51.208;4.242;2023-06-10T13:11:46;35.00;42.60
19164;DHT22;9714;51.208;4.242;2023-06-10T13:14:13;35.70;42.10
19164;DHT22;9714;51.208;4.242;2023-06-10T13:16:40;36.60;41.30
19164;DHT22;9714;51.208;4.242;2023-06-10T13:19:09;37.10;40.20
19164;DHT22;9714;51.208;4.242;2023-06-10T13:21:38;37.40;39.80
19164;DHT22;9714;51.208;4.242;2023-06-10T13:24:05;37.80;39.20
19164;DHT22;9714;51.208;4.242;2023-06-10T13:26:33;37.20;40.60
19164;DHT22;9714;51.208;4.242;2023-06-10T13:29:01;36.30;40.20
19164;DHT22;9714;51.208;4.242;2023-06-10T13:31:28;35.10;41.50
19164;DHT22;9714;51.208;4.242;2023-06-10T13:33:56;35.90;41.40
19164;DHT22;9714;51.208;4.242;2023-06-10T13:36:23;37.20;39.80
19164;DHT22;9714;51.208;4.242;2023-06-10T13:38:51;38.00;39.50
19164;DHT22;9714;51.208;4.242;2023-06-10T13:41:19;37.80;39.30
19164;DHT22;9714;51.208;4.242;2023-06-10T13:43:46;36.70;39.90
19164;DHT22;9714;51.208;4.242;2023-06-10T13:46:13;36.60;39.80
19164;DHT22;9714;51.208;4.242;2023-06-10T13:48:40;37.00;39.10
19164;DHT22;9714;51.208;4.242;2023-06-10T13:51:08;38.70;39.00
19164;DHT22;9714;51.208;4.242;2023-06-10T13:53:39;38.70;38.10
19164;DHT22;9714;51.208;4.242;2023-06-10T13:56:08;38.80;38.80
19164;DHT22;9714;51.208;4.242;2023-06-10T13:58:35;39.30;38.70
19164;DHT22;9714;51.208;4.242;2023-06-10T14:01:05;38.70;38.80
19164;DHT22;9714;51.208;4.242;2023-06-10T14:03:32;37.70;39.00
19164;DHT22;9714;51.208;4.242;2023-06-10T14:05:59;36.90;39.40
19164;DHT22;9714;51.208;4.242;2023-06-10T14:08:27;37.00;40.20
19164;DHT22;9714;51.208;4.242;2023-06-10T14:10:55;37.70;38.60
19164;DHT22;9714;51.208;4.242;2023-06-10T14:13:24;37.60;39.40
19164;DHT22;9714;51.208;4.242;2023-06-10T14:15:51;38.30;38.70
19164;DHT22;9714;51.208;4.242;2023-06-10T14:18:18;38.60;38.40
19164;DHT22;9714;51.208;4.242;2023-06-10T14:20:46;39.30;38.30
19164;DHT22;9714;51.208;4.242;2023-06-10T14:23:13;38.30;38.20
19164;DHT22;9714;51.208;4.242;2023-06-10T14:25:40;37.80;38.90
19164;DHT22;9714;51.208;4.242;2023-06-10T14:28:08;38.00;38.70
19164;DHT22;9714;51.208;4.242;2023-06-10T14:30:36;37.70;38.90
19164;DHT22;9714;51.208;4.242;2023-06-10T14:33:03;37.30;39.40
19164;DHT22;9714;51.208;4.242;2023-06-10T14:35:31;38.10;39.30
19164;DHT22;9714;51.208;4.242;2023-06-10T14:37:59;38.90;38.00
19164;DHT22;9714;51.208;4.242;2023-06-10T14:40:26;38.50;38.40
19164;DHT22;9714;51.208;4.242;2023-06-10T14:42:54;37.70;38.50
19164;DHT22;9714;51.208;4.242;2023-06-10T14:45:21;37.20;38.70
19164;DHT22;9714;51.208;4.242;2023-06-10T14:47:52;37.50;39.30
19164;DHT22;9714;51.208;4.242;2023-06-10T14:50:19;37.10;39.20
19164;DHT22;9714;51.208;4.242;2023-06-10T14:52:46;36.30;40.30
19164;DHT22;9714;51.208;4.242;2023-06-10T14:55:13;35.90;40.20
19164;DHT22;9714;51.208;4.242;2023-06-10T14:57:41;35.70;39.80
19164;DHT22;9714;51.208;4.242;2023-06-10T15:00:10;37.20;40.60
19164;DHT22;9714;51.208;4.242;2023-06-10T15:02:37;38.50;38.60
19164;DHT22;9714;51.208;4.242;2023-06-10T15:05:06;38.90;38.10
19164;DHT22;9714;51.208;4.242;2023-06-10T15:07:33;38.50;38.50
19164;DHT22;9714;51.208;4.242;2023-06-10T15:10:00;38.30;38.20
19164;DHT22;9714;51.208;4.242;2023-06-10T15:12:27;38.00;38.10
19164;DHT22;9714;51.208;4.242;2023-06-10T15:14:54;38.20;38.30
19164;DHT22;9714;51.208;4.242;2023-06-10T15:17:21;38.30;38.30
19164;DHT22;9714;51.208;4.242;2023-06-10T15:19:48;38.70;38.10
19164;DHT22;9714;51.208;4.242;2023-06-10T15:22:17;38.00;38.00
19164;DHT22;9714;51.208;4.242;2023-06-10T15:24:44;37.50;38.50
19164;DHT22;9714;51.208;4.242;2023-06-10T15:27:11;38.00;37.90
19164;DHT22;9714;51.208;4.242;2023-06-10T15:29:38;38.20;38.70
19164;DHT22;9714;51.208;4.242;2023-06-10T15:32:06;37.60;38.10
19164;DHT22;9714;51.208;4.242;2023-06-10T15:34:33;38.10;38.30
19164;DHT22;9714;51.208;4.242;2023-06-10T15:37:01;38.50;38.00
19164;DHT22;9714;51.208;4.242;2023-06-10T15:39:30;37.40;38.30
19164;DHT22;9714;51.208;4.242;2023-06-10T15:41:57;36.50;38.60
19164;DHT22;9714;51.208;4.242;2023-06-10T15:44:24;36.70;39.10
19164;DHT22;9714;51.208;4.242;2023-06-10T15:46:51;37.30;38.10
19164;DHT22;9714;51.208;4.242;2023-06-10T15:49:18;38.10;37.30
19164;DHT22;9714;51.208;4.242;2023-06-10T15:51:45;38.30;37.10
19164;DHT22;9714;51.208;4.242;2023-06-10T15:54:12;38.50;37.40
19164;DHT22;9714;51.208;4.242;2023-06-10T15:56:40;38.50;37.20
19164;DHT22;9714;51.208;4.242;2023-06-10T15:59:07;39.30;37.50
19164;DHT22;9714;51.208;4.242;2023-06-10T16:01:36;39.40;37.30
19164;DHT22;9714;51.208;4.242;2023-06-10T16:04:03;39.10;37.40